Yuho Maru No.3 — JD2491 — position and weather

sailwx.info

Track history (hours):
 
Tides and Currents Weather Stations Pressure Air Temp Water Temp Dewpoint Dewpoint Depression Visibility Wind Speed Wind Dir Waves Ship Positions

Yuho Maru No.3

Last reported at 2014-Sep-20 04:33 UTC. Time now 2014-Sep-23 18:25 UTC.
Position N 35°11' E 139°45'.

Length 65 m; draft 4.2 m.

Type: Tanker. MMSI: 431000336.

Date/timePositionNaut miles runAvg speedWind from/ knotsBaromVisibWave heightAir tempDewpointWater temp
2014-Sep-20 04:33N 35°11' E 139°45'1111.1
2014-Sep-20 03:33N 35°22' E 139°42'1211.5
2014-Sep-20 02:33N 35°30' E 139°52'10 0.5
2014-Sep-19 05:33N 35°38' E 139°59'1010.0
2014-Sep-19 04:33N 35°28' E 140°01'0 0.0
2014-Sep-19 03:33N 35°28' E 140°01'1 0.6
2014-Sep-19 02:33N 35°29' E 140°01'1212.3
2014-Sep-19 01:33N 35°31' E 139°46'1 0.5
2014-Sep-19 00:33N 35°31' E 139°46'0 0.0
2014-Sep-18 23:33N 35°31' E 139°46'0 0.0
2014-Sep-18 22:33N 35°31' E 139°46'6 6.2
2014-Sep-18 21:33N 35°32' E 139°53'1211.6
2014-Sep-18 20:34N 35°36' E 140°06'0 0.0
2014-Sep-18 19:33N 35°36' E 140°06'0 0.0
2014-Sep-18 18:32N 35°36' E 140°06'0 0.0
2014-Sep-18 17:33N 35°36' E 140°06'0 0.0
2014-Sep-18 16:33N 35°36' E 140°06'0 0.0
2014-Sep-18 15:33N 35°36' E 140°06'0 0.0
2014-Sep-18 14:33N 35°36' E 140°06'0 0.0
2014-Sep-18 13:33N 35°36' E 140°06'0 0.0
2014-Sep-18 12:33N 35°36' E 140°06'0 0.0
2014-Sep-18 11:33N 35°36' E 140°06'0 0.0
2014-Sep-18 10:33N 35°36' E 140°06'0 0.0
2014-Sep-18 09:33N 35°36' E 140°06'0 0.0
2014-Sep-18 08:33N 35°36' E 140°06'0 0.0
2014-Sep-18 07:33N 35°36' E 140°06'0 0.0
2014-Sep-18 06:33N 35°36' E 140°06'0 0.0
2014-Sep-18 05:33N 35°36' E 140°06'0 0.0
2014-Sep-18 04:33N 35°36' E 140°06'0 0.0
2014-Sep-18 03:33N 35°36' E 140°06'0 0.0
2014-Sep-18 02:33N 35°36' E 140°06'0 0.0
2014-Sep-18 01:33N 35°36' E 140°06'0 0.0
2014-Sep-18 00:33N 35°36' E 140°06'2 2.1
2014-Sep-17 23:33N 35°35' E 140°04'0 0.2
2014-Sep-17 22:33N 35°35' E 140°04'0 0.0
2014-Sep-17 21:33N 35°35' E 140°04'0 0.0
2014-Sep-17 20:33N 35°35' E 140°04'0 0.0
2014-Sep-17 19:33N 35°35' E 140°04'0 0.0
2014-Sep-17 18:33N 35°35' E 140°04'6 5.7
2014-Sep-17 17:33N 35°32' E 139°58'1211.9
2014-Sep-17 16:33N 35°25' E 139°47'1110.8
2014-Sep-17 15:33N 35°14' E 139°47'1312.6
2014-Sep-17 14:33N 35°01' E 139°44'13 9.8
2014-Sep-17 13:10N 34°53' E 139°57'711.3
2014-Sep-17 12:31N 34°56' E 140°05'2611.9
2014-Sep-17 10:18N 35°13' E 140°30'1513.0
2014-Sep-17 09:09N 35°25' E 140°41'1012.3
2014-Sep-17 08:18N 35°33' E 140°48'2010.4
2014-Sep-17 06:21N 35°54' E 140°47'5 6.3
2014-Sep-17 05:33N 35°54' E 140°41'1 1.0
2014-Sep-17 04:32N 35°54' E 140°41'0 0.0
2014-Sep-17 03:31N 35°54' E 140°41'0 0.0
2014-Sep-17 02:33N 35°54' E 140°41'0 0.0
2014-Sep-17 01:32N 35°54' E 140°41'0 0.0
2014-Sep-16 23:25N 35°54' E 140°41'1 1.6
2014-Sep-16 22:33N 35°55' E 140°41'3 2.5
2014-Sep-16 21:32N 35°57' E 140°42'1 1.4
2014-Sep-16 20:32N 35°57' E 140°44'20 9.9
2014-Sep-16 18:32N 35°39' E 140°54'1110.5
2014-Sep-16 17:29N 35°30' E 140°46'1010.8
2014-Sep-16 16:33N 35°22' E 140°39'2610.4
2014-Sep-16 14:04N 35°04' E 140°16'510.4
2014-Sep-16 13:33N 35°01' E 140°11'1211.1
2014-Sep-16 12:28N 34°54' E 139°59'1110.1
2014-Sep-16 11:24N 34°55' E 139°46'2010.4
2014-Sep-16 09:31N 35°15' E 139°46'1010.1
2014-Sep-16 08:33N 35°24' E 139°43'1010.4
2014-Sep-16 07:33N 35°30' E 139°54'7 6.8
2014-Sep-16 06:33N 35°31' E 140°02'0 0.0
2014-Sep-16 05:33N 35°31' E 140°02'0 0.0
2014-Sep-16 04:33N 35°31' E 140°02'0 0.0
2014-Sep-16 03:33N 35°31' E 140°02'0 0.0
2014-Sep-16 02:33N 35°31' E 140°02'0 0.0
2014-Sep-16 01:33N 35°31' E 140°02'0 0.0
2014-Sep-16 00:33N 35°31' E 140°02'4 4.0
2014-Sep-15 23:33N 35°34' E 140°04'3 2.8
2014-Sep-15 22:33N 35°36' E 140°06'0 0.0
2014-Sep-15 21:33N 35°36' E 140°06'0 0.0
2014-Sep-15 20:33N 35°36' E 140°06'0 0.0
2014-Sep-15 19:33N 35°36' E 140°06'0 0.0
2014-Sep-15 18:33N 35°36' E 140°06'0 0.0
2014-Sep-15 17:33N 35°36' E 140°06'0 0.0
2014-Sep-15 16:33N 35°36' E 140°06'0 0.0
2014-Sep-15 15:33N 35°36' E 140°06'0 0.0
2014-Sep-15 14:33N 35°36' E 140°06'0 0.0
2014-Sep-15 13:33N 35°36' E 140°06'0 0.0
2014-Sep-15 12:33N 35°36' E 140°06'0 0.0
2014-Sep-15 11:33N 35°36' E 140°06'0 0.0
2014-Sep-15 10:33N 35°36' E 140°06'0 0.0
2014-Sep-15 09:33N 35°36' E 140°06'0 0.0
2014-Sep-15 08:33N 35°36' E 140°06'0 0.0
2014-Sep-15 07:33N 35°36' E 140°06'0 0.0
2014-Sep-15 06:33N 35°36' E 140°06'0 0.0
2014-Sep-15 05:33N 35°36' E 140°06'0 0.0
2014-Sep-15 04:33N 35°36' E 140°06'0 0.0
2014-Sep-15 03:33N 35°36' E 140°06'0 0.0
2014-Sep-15 02:33N 35°36' E 140°06'0 0.0
2014-Sep-15 01:33N 35°36' E 140°06'0 0.0
2014-Sep-15 00:33N 35°36' E 140°06'0 0.0
2014-Sep-14 23:33N 35°36' E 140°06'7 7.4
2014-Sep-14 22:33N 35°40' E 139°59'0 0.1
2014-Sep-14 21:33N 35°41' E 139°59'0 0.0
2014-Sep-14 20:33N 35°41' E 139°59'0 0.0
2014-Sep-14 19:33N 35°41' E 139°59'0 0.0
2014-Sep-14 18:33N 35°41' E 139°59'0 0.0
2014-Sep-14 17:33N 35°41' E 139°59'0 0.0
2014-Sep-14 16:33N 35°41' E 139°59'0 0.0
2014-Sep-14 15:33N 35°41' E 139°59'0 0.0
2014-Sep-14 14:33N 35°41' E 139°59'0 0.0
2014-Sep-14 13:33N 35°41' E 139°59'0 0.0
2014-Sep-14 12:33N 35°41' E 139°59'0 0.0
2014-Sep-14 11:33N 35°41' E 139°59'0 0.0
2014-Sep-14 10:33N 35°41' E 139°59'0 0.0
2014-Sep-14 09:33N 35°41' E 139°59'0 0.0
2014-Sep-14 08:33N 35°41' E 139°59'0 0.0
2014-Sep-14 07:33N 35°41' E 139°59'0 0.0
2014-Sep-14 06:33N 35°41' E 139°59'0 0.0
2014-Sep-14 05:33N 35°41' E 139°59'0 0.0
2014-Sep-14 04:33N 35°41' E 139°59'0 0.0
2014-Sep-14 03:33N 35°41' E 139°59'6 6.3
2014-Sep-14 02:33N 35°35' E 139°56'9 8.6
2014-Sep-14 01:33N 35°31' E 139°46'3 0.7
2014-Sep-13 21:33N 35°29' E 139°49'0 0.0
2014-Sep-13 20:33N 35°29' E 139°49'0 0.0
2014-Sep-13 19:33N 35°29' E 139°49'0 0.0
2014-Sep-13 18:33N 35°29' E 139°49'0 0.0
2014-Sep-13 17:33N 35°29' E 139°49'0 0.0
2014-Sep-13 16:33N 35°29' E 139°49'2 2.4
2014-Sep-13 15:33N 35°26' E 139°47'1010.0
2014-Sep-13 14:33N 35°17' E 139°46'1110.9
2014-Sep-13 13:33N 35°06' E 139°45'1110.8
2014-Sep-13 12:32N 34°55' E 139°46'10 9.6
2014-Sep-13 11:32N 34°53' E 139°57'1010.3
2014-Sep-13 10:33N 34°59' E 140°07'2511.2
2014-Sep-13 08:21N 35°14' E 140°31'1411.3
2014-Sep-13 07:07N 35°25' E 140°41'711.4
2014-Sep-13 06:29N 35°31' E 140°46'23 9.8
2014-Sep-13 04:06N 35°54' E 140°46'3 5.9
2014-Sep-13 03:31N 35°56' E 140°42'1 1.2
2014-Sep-13 02:33N 35°55' E 140°41'0 0.0
2014-Sep-13 01:33N 35°55' E 140°41'0 0.0
2014-Sep-13 00:27N 35°55' E 140°41'0 0.0
2014-Sep-12 23:25N 35°55' E 140°41'2 2.6
2014-Sep-12 22:33N 35°57' E 140°42'0 0.0
2014-Sep-12 21:33N 35°57' E 140°42'0 0.0
2014-Sep-12 20:33N 35°57' E 140°42'0 0.0
2014-Sep-12 19:33N 35°57' E 140°42'0 0.0
2014-Sep-12 18:33N 35°57' E 140°42'0 0.0
2014-Sep-12 17:33N 35°57' E 140°42'0 0.0
2014-Sep-12 16:33N 35°57' E 140°42'0 0.0
2014-Sep-12 15:33N 35°57' E 140°42'0 0.0
2014-Sep-12 14:33N 35°57' E 140°42'0 0.0
2014-Sep-12 13:33N 35°57' E 140°42'3 3.0
2014-Sep-12 12:33N 35°56' E 140°45'1413.0
2014-Sep-12 11:30N 35°44' E 140°54'1311.9
2014-Sep-12 10:24N 35°32' E 140°47'1012.0
2014-Sep-12 09:33N 35°24' E 140°39'2812.8
2014-Sep-12 07:20N 35°03' E 140°16'1013.5
2014-Sep-12 06:33N 34°58' E 140°05'21 7.0
2014-Sep-12 03:33N 35°12' E 139°46'1212.5
2014-Sep-12 02:33N 35°24' E 139°43'7 7.5
2014-Sep-12 01:33N 35°31' E 139°46'0 0.0
2014-Sep-12 00:33N 35°31' E 139°46'0 0.0
2014-Sep-11 23:33N 35°31' E 139°46'2 1.7
2014-Sep-11 22:33N 35°30' E 139°48'1 0.9
2014-Sep-11 21:33N 35°29' E 139°49'4 4.3
2014-Sep-11 20:33N 35°25' E 139°47'10 9.8
2014-Sep-11 19:32N 35°15' E 139°47'1010.4
2014-Sep-11 18:33N 35°05' E 139°44'1110.3
2014-Sep-11 17:32N 34°55' E 139°46'1110.3
2014-Sep-11 16:31N 34°53' E 139°59'1110.1
2014-Sep-11 15:23N 34°59' E 140°11'9 8.8
2014-Sep-11 14:22N 35°04' E 140°21'8 7.9
2014-Sep-11 13:20N 35°09' E 140°28'7 8.9
2014-Sep-11 12:33N 35°15' E 140°32'1311.2
2014-Sep-11 11:23N 35°26' E 140°41'1011.6
2014-Sep-11 10:33N 35°34' E 140°48'19 9.7
2014-Sep-11 08:33N 35°54' E 140°47'5 4.7
2014-Sep-11 07:33N 35°55' E 140°41'0 0.0
2014-Sep-11 06:33N 35°55' E 140°41'0 0.0
2014-Sep-11 05:33N 35°55' E 140°41'0 0.0
2014-Sep-11 04:33N 35°55' E 140°41'0 0.0
2014-Sep-11 03:33N 35°55' E 140°41'2 2.3
2014-Sep-11 02:33N 35°57' E 140°42'0 0.0
2014-Sep-11 01:33N 35°57' E 140°42'0 0.0
2014-Sep-11 00:29N 35°57' E 140°42'0 0.0
2014-Sep-10 23:33N 35°57' E 140°42'0 0.0
2014-Sep-10 22:33N 35°57' E 140°42'0 0.1
2014-Sep-10 21:33N 35°57' E 140°42'0 0.0
2014-Sep-10 20:33N 35°57' E 140°42'0 0.0
2014-Sep-10 19:33N 35°57' E 140°42'0 0.0
2014-Sep-10 18:33N 35°57' E 140°42'0 0.1
2014-Sep-10 17:33N 35°57' E 140°42'0 0.0
2014-Sep-10 16:33N 35°57' E 140°42'0 0.0
2014-Sep-10 15:33N 35°57' E 140°42'0 0.0
2014-Sep-10 14:33N 35°57' E 140°42'8 7.5
2014-Sep-10 13:26N 35°51' E 140°49'1211.7
2014-Sep-10 12:24N 35°39' E 140°53'1612.8
2014-Sep-10 11:11N 35°26' E 140°42'2213.2
2014-Sep-10 09:32N 35°09' E 140°27'1413.8
2014-Sep-10 08:31N 35°00' E 140°13'1313.2
2014-Sep-10 07:33N 34°54' E 139°60'1110.7
2014-Sep-10 06:31N 34°55' E 139°46'9 9.1
2014-Sep-10 05:33N 35°04' E 139°45'1211.8
2014-Sep-10 04:33N 35°16' E 139°46'  
Track history (hours):
 
Tides and Currents Weather Stations Pressure Air Temp Water Temp Dewpoint Dewpoint Depression Visibility Wind Speed Wind Dir Waves Ship Positions

Yuho Maru No.3

Last reported at 2014-Sep-20 04:33 UTC. Time now 2014-Sep-23 18:25 UTC.
Position N 35°11' E 139°45'.

Length 65 m; draft 4.2 m.

Type: Tanker. MMSI: 431000336.

Date/timePositionNaut miles runAvg speedWind from/ knotsBaromVisibWave heightAir tempDewpointWater temp
2014-Sep-20 04:33N 35°11' E 139°45'1111.1
2014-Sep-20 03:33N 35°22' E 139°42'1211.5
2014-Sep-20 02:33N 35°30' E 139°52'10 0.5
2014-Sep-19 05:33N 35°38' E 139°59'1010.0
2014-Sep-19 04:33N 35°28' E 140°01'0 0.0
2014-Sep-19 03:33N 35°28' E 140°01'1 0.6
2014-Sep-19 02:33N 35°29' E 140°01'1212.3
2014-Sep-19 01:33N 35°31' E 139°46'1 0.5
2014-Sep-19 00:33N 35°31' E 139°46'0 0.0
2014-Sep-18 23:33N 35°31' E 139°46'0 0.0
2014-Sep-18 22:33N 35°31' E 139°46'6 6.2
2014-Sep-18 21:33N 35°32' E 139°53'1211.6
2014-Sep-18 20:34N 35°36' E 140°06'0 0.0
2014-Sep-18 19:33N 35°36' E 140°06'0 0.0
2014-Sep-18 18:32N 35°36' E 140°06'0 0.0
2014-Sep-18 17:33N 35°36' E 140°06'0 0.0
2014-Sep-18 16:33N 35°36' E 140°06'0 0.0
2014-Sep-18 15:33N 35°36' E 140°06'0 0.0
2014-Sep-18 14:33N 35°36' E 140°06'0 0.0
2014-Sep-18 13:33N 35°36' E 140°06'0 0.0
2014-Sep-18 12:33N 35°36' E 140°06'0 0.0
2014-Sep-18 11:33N 35°36' E 140°06'0 0.0
2014-Sep-18 10:33N 35°36' E 140°06'0 0.0
2014-Sep-18 09:33N 35°36' E 140°06'0 0.0
2014-Sep-18 08:33N 35°36' E 140°06'0 0.0
2014-Sep-18 07:33N 35°36' E 140°06'0 0.0
2014-Sep-18 06:33N 35°36' E 140°06'0 0.0
2014-Sep-18 05:33N 35°36' E 140°06'0 0.0
2014-Sep-18 04:33N 35°36' E 140°06'0 0.0
2014-Sep-18 03:33N 35°36' E 140°06'0 0.0
2014-Sep-18 02:33N 35°36' E 140°06'0 0.0
2014-Sep-18 01:33N 35°36' E 140°06'0 0.0
2014-Sep-18 00:33N 35°36' E 140°06'2 2.1
2014-Sep-17 23:33N 35°35' E 140°04'0 0.2
2014-Sep-17 22:33N 35°35' E 140°04'0 0.0
2014-Sep-17 21:33N 35°35' E 140°04'0 0.0
2014-Sep-17 20:33N 35°35' E 140°04'0 0.0
2014-Sep-17 19:33N 35°35' E 140°04'0 0.0
2014-Sep-17 18:33N 35°35' E 140°04'6 5.7
2014-Sep-17 17:33N 35°32' E 139°58'1211.9
2014-Sep-17 16:33N 35°25' E 139°47'1110.8
2014-Sep-17 15:33N 35°14' E 139°47'1312.6
2014-Sep-17 14:33N 35°01' E 139°44'13 9.8
2014-Sep-17 13:10N 34°53' E 139°57'711.3
2014-Sep-17 12:31N 34°56' E 140°05'2611.9
2014-Sep-17 10:18N 35°13' E 140°30'1513.0
2014-Sep-17 09:09N 35°25' E 140°41'1012.3
2014-Sep-17 08:18N 35°33' E 140°48'2010.4
2014-Sep-17 06:21N 35°54' E 140°47'5 6.3
2014-Sep-17 05:33N 35°54' E 140°41'1 1.0
2014-Sep-17 04:32N 35°54' E 140°41'0 0.0
2014-Sep-17 03:31N 35°54' E 140°41'0 0.0
2014-Sep-17 02:33N 35°54' E 140°41'0 0.0
2014-Sep-17 01:32N 35°54' E 140°41'0 0.0
2014-Sep-16 23:25N 35°54' E 140°41'1 1.6
2014-Sep-16 22:33N 35°55' E 140°41'3 2.5
2014-Sep-16 21:32N 35°57' E 140°42'1 1.4
2014-Sep-16 20:32N 35°57' E 140°44'20 9.9
2014-Sep-16 18:32N 35°39' E 140°54'1110.5
2014-Sep-16 17:29N 35°30' E 140°46'1010.8
2014-Sep-16 16:33N 35°22' E 140°39'2610.4
2014-Sep-16 14:04N 35°04' E 140°16'510.4
2014-Sep-16 13:33N 35°01' E 140°11'1211.1
2014-Sep-16 12:28N 34°54' E 139°59'1110.1
2014-Sep-16 11:24N 34°55' E 139°46'2010.4
2014-Sep-16 09:31N 35°15' E 139°46'1010.1
2014-Sep-16 08:33N 35°24' E 139°43'1010.4
2014-Sep-16 07:33N 35°30' E 139°54'7 6.8
2014-Sep-16 06:33N 35°31' E 140°02'0 0.0
2014-Sep-16 05:33N 35°31' E 140°02'0 0.0
2014-Sep-16 04:33N 35°31' E 140°02'0 0.0
2014-Sep-16 03:33N 35°31' E 140°02'0 0.0
2014-Sep-16 02:33N 35°31' E 140°02'0 0.0
2014-Sep-16 01:33N 35°31' E 140°02'0 0.0
2014-Sep-16 00:33N 35°31' E 140°02'4 4.0
2014-Sep-15 23:33N 35°34' E 140°04'3 2.8
2014-Sep-15 22:33N 35°36' E 140°06'0 0.0
2014-Sep-15 21:33N 35°36' E 140°06'0 0.0
2014-Sep-15 20:33N 35°36' E 140°06'0 0.0
2014-Sep-15 19:33N 35°36' E 140°06'0 0.0
2014-Sep-15 18:33N 35°36' E 140°06'0 0.0
2014-Sep-15 17:33N 35°36' E 140°06'0 0.0
2014-Sep-15 16:33N 35°36' E 140°06'0 0.0
2014-Sep-15 15:33N 35°36' E 140°06'0 0.0
2014-Sep-15 14:33N 35°36' E 140°06'0 0.0
2014-Sep-15 13:33N 35°36' E 140°06'0 0.0
2014-Sep-15 12:33N 35°36' E 140°06'0 0.0
2014-Sep-15 11:33N 35°36' E 140°06'0 0.0
2014-Sep-15 10:33N 35°36' E 140°06'0 0.0
2014-Sep-15 09:33N 35°36' E 140°06'0 0.0
2014-Sep-15 08:33N 35°36' E 140°06'0 0.0
2014-Sep-15 07:33N 35°36' E 140°06'0 0.0
2014-Sep-15 06:33N 35°36' E 140°06'0 0.0
2014-Sep-15 05:33N 35°36' E 140°06'0 0.0
2014-Sep-15 04:33N 35°36' E 140°06'0 0.0
2014-Sep-15 03:33N 35°36' E 140°06'0 0.0
2014-Sep-15 02:33N 35°36' E 140°06'0 0.0
2014-Sep-15 01:33N 35°36' E 140°06'0 0.0
2014-Sep-15 00:33N 35°36' E 140°06'0 0.0
2014-Sep-14 23:33N 35°36' E 140°06'7 7.4
2014-Sep-14 22:33N 35°40' E 139°59'0 0.1
2014-Sep-14 21:33N 35°41' E 139°59'0 0.0
2014-Sep-14 20:33N 35°41' E 139°59'0 0.0
2014-Sep-14 19:33N 35°41' E 139°59'0 0.0
2014-Sep-14 18:33N 35°41' E 139°59'0 0.0
2014-Sep-14 17:33N 35°41' E 139°59'0 0.0
2014-Sep-14 16:33N 35°41' E 139°59'0 0.0
2014-Sep-14 15:33N 35°41' E 139°59'0 0.0
2014-Sep-14 14:33N 35°41' E 139°59'0 0.0
2014-Sep-14 13:33N 35°41' E 139°59'0 0.0
2014-Sep-14 12:33N 35°41' E 139°59'0 0.0
2014-Sep-14 11:33N 35°41' E 139°59'0 0.0
2014-Sep-14 10:33N 35°41' E 139°59'0 0.0
2014-Sep-14 09:33N 35°41' E 139°59'0 0.0
2014-Sep-14 08:33N 35°41' E 139°59'0 0.0
2014-Sep-14 07:33N 35°41' E 139°59'0 0.0
2014-Sep-14 06:33N 35°41' E 139°59'0 0.0
2014-Sep-14 05:33N 35°41' E 139°59'0 0.0
2014-Sep-14 04:33N 35°41' E 139°59'0 0.0
2014-Sep-14 03:33N 35°41' E 139°59'6 6.3
2014-Sep-14 02:33N 35°35' E 139°56'9 8.6
2014-Sep-14 01:33N 35°31' E 139°46'3 0.7
2014-Sep-13 21:33N 35°29' E 139°49'0 0.0
2014-Sep-13 20:33N 35°29' E 139°49'0 0.0
2014-Sep-13 19:33N 35°29' E 139°49'0 0.0
2014-Sep-13 18:33N 35°29' E 139°49'0 0.0
2014-Sep-13 17:33N 35°29' E 139°49'0 0.0
2014-Sep-13 16:33N 35°29' E 139°49'2 2.4
2014-Sep-13 15:33N 35°26' E 139°47'1010.0
2014-Sep-13 14:33N 35°17' E 139°46'1110.9
2014-Sep-13 13:33N 35°06' E 139°45'1110.8
2014-Sep-13 12:32N 34°55' E 139°46'10 9.6
2014-Sep-13 11:32N 34°53' E 139°57'1010.3
2014-Sep-13 10:33N 34°59' E 140°07'2511.2
2014-Sep-13 08:21N 35°14' E 140°31'1411.3
2014-Sep-13 07:07N 35°25' E 140°41'711.4
2014-Sep-13 06:29N 35°31' E 140°46'23 9.8
2014-Sep-13 04:06N 35°54' E 140°46'3 5.9
2014-Sep-13 03:31N 35°56' E 140°42'1 1.2
2014-Sep-13 02:33N 35°55' E 140°41'0 0.0
2014-Sep-13 01:33N 35°55' E 140°41'0 0.0
2014-Sep-13 00:27N 35°55' E 140°41'0 0.0
2014-Sep-12 23:25N 35°55' E 140°41'2 2.6
2014-Sep-12 22:33N 35°57' E 140°42'0 0.0
2014-Sep-12 21:33N 35°57' E 140°42'0 0.0
2014-Sep-12 20:33N 35°57' E 140°42'0 0.0
2014-Sep-12 19:33N 35°57' E 140°42'0 0.0
2014-Sep-12 18:33N 35°57' E 140°42'0 0.0
2014-Sep-12 17:33N 35°57' E 140°42'0 0.0
2014-Sep-12 16:33N 35°57' E 140°42'0 0.0
2014-Sep-12 15:33N 35°57' E 140°42'0 0.0
2014-Sep-12 14:33N 35°57' E 140°42'0 0.0
2014-Sep-12 13:33N 35°57' E 140°42'3 3.0
2014-Sep-12 12:33N 35°56' E 140°45'1413.0
2014-Sep-12 11:30N 35°44' E 140°54'1311.9
2014-Sep-12 10:24N 35°32' E 140°47'1012.0
2014-Sep-12 09:33N 35°24' E 140°39'2812.8
2014-Sep-12 07:20N 35°03' E 140°16'1013.5
2014-Sep-12 06:33N 34°58' E 140°05'21 7.0
2014-Sep-12 03:33N 35°12' E 139°46'1212.5
2014-Sep-12 02:33N 35°24' E 139°43'7 7.5
2014-Sep-12 01:33N 35°31' E 139°46'0 0.0
2014-Sep-12 00:33N 35°31' E 139°46'0 0.0
2014-Sep-11 23:33N 35°31' E 139°46'2 1.7
2014-Sep-11 22:33N 35°30' E 139°48'1 0.9
2014-Sep-11 21:33N 35°29' E 139°49'4 4.3
2014-Sep-11 20:33N 35°25' E 139°47'10 9.8
2014-Sep-11 19:32N 35°15' E 139°47'1010.4
2014-Sep-11 18:33N 35°05' E 139°44'1110.3
2014-Sep-11 17:32N 34°55' E 139°46'1110.3
2014-Sep-11 16:31N 34°53' E 139°59'1110.1
2014-Sep-11 15:23N 34°59' E 140°11'9 8.8
2014-Sep-11 14:22N 35°04' E 140°21'8 7.9
2014-Sep-11 13:20N 35°09' E 140°28'7 8.9
2014-Sep-11 12:33N 35°15' E 140°32'1311.2
2014-Sep-11 11:23N 35°26' E 140°41'1011.6
2014-Sep-11 10:33N 35°34' E 140°48'19 9.7
2014-Sep-11 08:33N 35°54' E 140°47'5 4.7
2014-Sep-11 07:33N 35°55' E 140°41'0 0.0
2014-Sep-11 06:33N 35°55' E 140°41'0 0.0
2014-Sep-11 05:33N 35°55' E 140°41'0 0.0
2014-Sep-11 04:33N 35°55' E 140°41'0 0.0
2014-Sep-11 03:33N 35°55' E 140°41'2 2.3
2014-Sep-11 02:33N 35°57' E 140°42'0 0.0
2014-Sep-11 01:33N 35°57' E 140°42'0 0.0
2014-Sep-11 00:29N 35°57' E 140°42'0 0.0
2014-Sep-10 23:33N 35°57' E 140°42'0 0.0
2014-Sep-10 22:33N 35°57' E 140°42'0 0.1
2014-Sep-10 21:33N 35°57' E 140°42'0 0.0
2014-Sep-10 20:33N 35°57' E 140°42'0 0.0
2014-Sep-10 19:33N 35°57' E 140°42'0 0.0
2014-Sep-10 18:33N 35°57' E 140°42'0 0.1
2014-Sep-10 17:33N 35°57' E 140°42'0 0.0
2014-Sep-10 16:33N 35°57' E 140°42'0 0.0
2014-Sep-10 15:33N 35°57' E 140°42'0 0.0
2014-Sep-10 14:33N 35°57' E 140°42'8 7.5
2014-Sep-10 13:26N 35°51' E 140°49'1211.7
2014-Sep-10 12:24N 35°39' E 140°53'1612.8
2014-Sep-10 11:11N 35°26' E 140°42'2213.2
2014-Sep-10 09:32N 35°09' E 140°27'1413.8
2014-Sep-10 08:31N 35°00' E 140°13'1313.2
2014-Sep-10 07:33N 34°54' E 139°60'1110.7
2014-Sep-10 06:31N 34°55' E 139°46'9 9.1
2014-Sep-10 05:33N 35°04' E 139°45'1211.8
2014-Sep-10 04:33N 35°16' E 139°46'  

Dump ship's entire track history